createdAt,value
2019-06-10T00:00:01.355Z,100234
2019-06-10T00:05:02.411Z,100247
2019-06-10T00:10:01.054Z,100240
2019-06-10T00:15:01.771Z,100224
2019-06-10T00:20:02.356Z,100230
2019-06-10T00:25:02.330Z,100222
2019-06-10T00:30:02.867Z,100198
2019-06-10T00:35:01.884Z,100207
2019-06-10T00:40:02.530Z,100214
2019-06-10T00:45:02.608Z,100215
2019-06-10T00:50:02.833Z,100205
2019-06-10T00:55:01.614Z,100189
2019-06-10T01:00:01.621Z,100188
2019-06-10T01:05:00.771Z,100180
2019-06-10T01:10:01.073Z,100181
2019-06-10T01:15:00.849Z,100172
2019-06-10T01:20:01.470Z,100168
2019-06-10T01:25:01.620Z,100173
2019-06-10T01:30:01.677Z,100177
2019-06-10T01:35:01.219Z,100169
2019-06-10T01:40:00.744Z,100168
2019-06-10T01:45:01.138Z,100157
2019-06-10T01:50:00.664Z,100159
2019-06-10T01:55:01.493Z,100133
2019-06-10T02:00:00.936Z,100139
2019-06-10T02:05:01.503Z,100141
2019-06-10T02:10:01.087Z,100151
2019-06-10T02:15:01.234Z,100156
2019-06-10T02:20:01.096Z,100167
2019-06-10T02:25:01.209Z,100136
2019-06-10T02:30:01.756Z,100116
2019-06-10T02:35:08.467Z,100117
2019-06-10T02:40:04.061Z,100102
2019-06-10T02:45:03.224Z,100073
2019-06-10T02:50:04.202Z,100088
2019-06-10T02:55:03.721Z,100073
2019-06-10T03:00:04.198Z,100054
2019-06-10T03:05:00.099Z,100056
2019-06-10T03:10:00.127Z,100056
2019-06-10T03:15:02.061Z,100055
2019-06-10T03:20:02.266Z,100041
2019-06-10T03:25:00.096Z,100055
2019-06-10T03:30:02.952Z,100062
2019-06-10T03:35:00.101Z,100048
2019-06-10T03:40:02.076Z,100047
2019-06-10T03:45:00.065Z,100052
2019-06-10T03:50:02.994Z,100052
2019-06-10T03:55:00.114Z,100052
2019-06-10T04:00:02.228Z,100061
2019-06-10T04:05:02.566Z,100057
2019-06-10T04:10:02.220Z,100078
2019-06-10T04:15:00.102Z,100059
2019-06-10T04:20:09.101Z,100054
2019-06-10T04:25:02.793Z,100044
2019-06-10T04:30:00.067Z,100047
2019-06-10T04:35:02.229Z,100069
2019-06-10T04:40:02.611Z,100061
2019-06-10T04:45:00.112Z,100046
2019-06-10T04:50:00.105Z,100028
2019-06-10T04:55:02.274Z,100052
2019-06-10T05:00:02.534Z,100051
2019-06-10T05:05:02.673Z,100044
2019-06-10T05:10:00.095Z,100036
2019-06-10T05:15:00.111Z,100011
2019-06-10T05:20:02.260Z,100019
2019-06-10T05:25:02.243Z,100022
2019-06-10T05:30:02.243Z,100014
2019-06-10T05:35:00.102Z,100024
2019-06-10T05:40:02.171Z,100029
2019-06-10T05:45:00.098Z,100034
2019-06-10T05:50:02.716Z,100030
2019-06-10T05:55:02.718Z,100021
2019-06-10T06:00:00.097Z,100012
2019-06-10T06:05:02.413Z,99999
2019-06-10T06:10:02.255Z,100005
2019-06-10T06:15:02.178Z,100000
2019-06-10T06:20:02.557Z,99993
2019-06-10T06:25:03.322Z,99998
2019-06-10T06:30:00.066Z,99987
2019-06-10T06:35:02.067Z,100004
2019-06-10T06:40:02.610Z,100009
2019-06-10T06:45:00.110Z,100005
2019-06-10T06:50:02.517Z,100001
2019-06-10T06:55:02.315Z,100018
2019-06-10T07:00:00.118Z,100006
2019-06-10T07:05:00.072Z,100001
2019-06-10T07:10:00.113Z,99998
2019-06-10T07:15:00.113Z,100003
2019-06-10T07:20:00.110Z,100000
2019-06-10T07:25:03.940Z,99998
2019-06-10T07:30:00.070Z,99986
2019-06-10T07:35:00.131Z,99979
2019-06-10T07:40:00.106Z,99985
2019-06-10T07:45:02.396Z,99977
2019-06-10T07:50:00.720Z,99967
2019-06-10T07:55:02.333Z,99968
2019-06-10T08:00:02.908Z,99957
2019-06-10T08:05:00.118Z,99962
2019-06-10T08:10:02.710Z,99968
2019-06-10T08:15:02.509Z,99973
2019-06-10T08:20:02.406Z,99959
2019-06-10T08:25:00.119Z,99959
2019-06-10T08:30:15.051Z,99955
2019-06-10T08:35:02.598Z,99961
2019-06-10T08:40:00.100Z,99966
2019-06-10T08:45:00.797Z,99973
2019-06-10T08:50:02.408Z,99973
2019-06-10T08:55:00.124Z,99963
2019-06-10T09:00:02.854Z,99977
2019-06-10T09:05:00.095Z,99990
2019-06-10T09:10:02.777Z,99977
2019-06-10T09:15:03.137Z,99973
2019-06-10T09:20:02.386Z,99976
2019-06-10T09:25:02.723Z,99984
2019-06-10T09:30:02.800Z,99980
2019-06-10T09:35:03.193Z,99995
2019-06-10T09:40:00.095Z,100004
2019-06-10T09:45:02.421Z,100009
2019-06-10T09:50:00.102Z,100005
2019-06-10T09:55:02.496Z,100011
2019-06-10T10:00:03.052Z,100014
2019-06-10T10:05:00.075Z,100004
2019-06-10T10:10:00.118Z,100015
2019-06-10T10:15:16.155Z,100001
2019-06-10T10:20:00.180Z,99998
2019-06-10T10:25:02.759Z,100001
2019-06-10T10:30:00.101Z,99990
2019-06-10T10:35:02.999Z,100002
2019-06-10T10:40:00.114Z,100000
2019-06-10T10:45:02.568Z,99997
2019-06-10T10:50:02.651Z,99991
2019-06-10T10:55:04.178Z,99979
2019-06-10T11:00:00.103Z,99979
2019-06-10T11:45:02.761Z,99926
2019-06-10T11:50:02.824Z,99921
2019-06-10T11:55:11.493Z,99914
2019-06-10T12:00:00.094Z,99901
2019-06-10T12:05:01.440Z,99891
2019-06-10T12:10:01.155Z,99879
2019-06-10T12:15:01.433Z,99869
2019-06-10T12:20:02.947Z,99869
2019-06-10T12:25:24.780Z,99855
2019-06-10T12:30:04.272Z,99851
2019-06-10T12:35:02.388Z,99856
2019-06-10T12:40:02.056Z,99843
2019-06-10T12:45:01.619Z,99835
2019-06-10T12:50:01.570Z,99819
2019-06-10T12:55:00.073Z,99803
2019-06-10T13:00:00.951Z,99801
2019-06-10T13:05:03.074Z,99793
2019-06-10T13:10:00.103Z,99789
2019-06-10T13:15:02.837Z,99786
2019-06-10T13:20:01.786Z,99779
2019-06-10T13:25:00.602Z,99770
2019-06-10T13:30:00.105Z,99762
2019-06-10T13:35:00.549Z,99758
2019-06-10T13:40:01.350Z,99755
2019-06-10T13:45:00.071Z,99746
2019-06-10T13:50:01.350Z,99746
2019-06-10T13:55:01.119Z,99744
2019-06-10T14:00:02.682Z,99723
2019-06-10T14:05:03.431Z,99730
2019-06-10T14:10:00.915Z,99729
2019-06-10T14:15:03.849Z,99729
2019-06-10T14:20:00.130Z,99725
2019-06-10T14:25:02.749Z,99720
2019-06-10T14:30:02.690Z,99711
2019-06-10T14:35:00.104Z,99712
2019-06-10T14:40:00.103Z,99713
2019-06-10T14:45:00.116Z,99726
2019-06-10T14:50:00.103Z,99710
2019-06-10T14:55:02.405Z,99710
2019-06-10T15:00:02.677Z,99700
2019-06-10T15:05:02.610Z,99712
2019-06-10T15:10:00.100Z,99702
2019-06-10T15:15:00.162Z,99676
2019-06-10T15:20:03.451Z,99677
2019-06-10T15:25:03.032Z,99670
2019-06-10T15:30:00.121Z,99649
2019-06-10T15:35:00.113Z,99646
2019-06-10T15:40:00.102Z,99650
2019-06-10T15:45:02.282Z,99640
2019-06-10T15:50:00.132Z,99643
2019-06-10T15:55:00.105Z,99638
2019-06-10T16:00:02.751Z,99646
2019-06-10T16:05:00.121Z,99647
2019-06-10T16:10:02.666Z,99649
2019-06-10T16:15:02.484Z,99655
2019-06-10T16:20:00.127Z,99656
2019-06-10T16:25:00.068Z,99655
2019-06-10T16:30:02.567Z,99649
2019-06-10T16:35:00.115Z,99648
2019-06-10T16:40:00.074Z,99654
2019-06-10T16:45:02.347Z,99650
2019-06-10T16:50:02.985Z,99664
2019-06-10T16:55:02.206Z,99654
2019-06-10T17:00:02.708Z,99656
2019-06-10T17:05:00.106Z,99666
2019-06-10T17:10:02.286Z,99662
2019-06-10T17:15:00.105Z,99675
2019-06-10T17:20:03.527Z,99659
2019-06-10T17:25:00.105Z,99660
2019-06-10T17:30:02.678Z,99661
2019-06-10T17:35:02.279Z,99649
2019-06-10T17:40:02.473Z,99640
2019-06-10T17:45:02.357Z,99623
2019-06-10T17:50:02.267Z,99624
2019-06-10T17:55:00.118Z,99626
2019-06-10T18:00:00.119Z,99635
2019-06-10T18:05:00.104Z,99645
2019-06-10T18:10:02.509Z,99622
2019-06-10T18:15:00.117Z,99640
2019-06-10T18:20:02.627Z,99637
2019-06-10T18:25:00.129Z,99620
2019-06-10T18:30:02.278Z,99610
2019-06-10T18:35:02.753Z,99579
2019-06-10T18:40:02.208Z,99578
2019-06-10T18:45:02.581Z,99546
2019-06-10T18:50:00.121Z,99577
2019-06-10T18:55:00.122Z,99638
2019-06-10T19:00:00.104Z,99638
2019-06-10T19:05:02.651Z,99616
2019-06-10T19:10:02.258Z,99646
2019-06-10T19:15:02.629Z,99673
2019-06-10T19:20:00.114Z,99680
2019-06-10T19:25:00.123Z,99703
2019-06-10T19:30:00.109Z,99728
2019-06-10T19:35:02.674Z,99788
2019-06-10T19:40:00.167Z,99805
2019-06-10T19:45:00.147Z,99755
2019-06-10T19:50:00.105Z,99742
2019-06-10T19:55:02.496Z,99720
2019-06-10T20:00:08.272Z,99710
2019-06-10T20:05:02.191Z,99637
2019-06-10T20:10:02.676Z,99609
2019-06-10T20:15:02.228Z,99625
2019-06-10T20:20:02.355Z,99587
2019-06-10T20:25:00.101Z,99557
2019-06-10T20:30:09.763Z,99566
2019-06-10T20:35:02.777Z,99573
2019-06-10T20:40:03.312Z,99552
2019-06-10T20:45:02.733Z,99553
2019-06-10T20:50:00.122Z,99553
2019-06-10T20:55:02.400Z,99537
2019-06-10T21:00:00.120Z,99527
2019-06-10T21:05:02.564Z,99507
2019-06-10T21:10:02.561Z,99495
2019-06-10T21:15:02.265Z,99514
2019-06-10T21:20:00.156Z,99531
2019-06-10T21:25:02.329Z,99540
2019-06-10T21:30:02.816Z,99563
2019-06-10T21:35:00.113Z,99601
2019-06-10T21:40:03.033Z,99615
2019-06-10T21:45:00.141Z,99647
2019-06-10T21:50:00.113Z,99649
2019-06-10T21:55:02.777Z,99680
2019-06-10T22:00:02.367Z,99692
2019-06-10T22:05:02.674Z,99689
2019-06-10T22:10:02.341Z,99679
2019-06-10T22:15:00.119Z,99664
2019-06-10T22:20:00.111Z,99659
2019-06-10T22:25:02.757Z,99645
2019-06-10T22:30:02.666Z,99625
2019-06-10T22:35:00.103Z,99617
2019-06-10T22:40:00.096Z,99598
2019-06-10T22:45:00.294Z,99586
2019-06-10T22:50:04.710Z,99594
2019-06-10T22:55:00.888Z,99600
2019-06-10T23:00:00.106Z,99608
2019-06-10T23:05:04.576Z,99595
2019-06-10T23:10:00.100Z,99591
2019-06-10T23:15:02.651Z,99577
2019-06-10T23:20:00.097Z,99564
2019-06-10T23:25:02.640Z,99599
2019-06-10T23:30:02.725Z,99597
2019-06-10T23:35:01.134Z,99606
2019-06-10T23:40:03.727Z,99613
2019-06-10T23:45:04.442Z,99619
2019-06-10T23:50:02.793Z,99628
2019-06-10T23:55:02.617Z,99635
